X  Cerrar Datos meteorológicos de aviación METAR     LEAL Alicante-Elche Miguel Hernández Airport
Temperatura
73°F Temperatura
66°F Punto de rocío
78% Humedad



Viento
6 MPH
10 KM/H
3 M/S
5 NUDO



80°
E
Condiciones actuales

Claro Claro
Presión 1009.82 (hPa) - 29.82 (inHg)
Visibilidad 6 (milla) - 9.7 (km)
Aeropuerto
Código de aeropuerto LEAL

Localidad: Alicante-Elche Miguel Hernández Airport
Distancia: 60 (mi)

Metar:
LEAL 252030Z 08005KT 050V110 CAVOK 23/19 Q1010 NOSIG

Hora: 25-06-2024 22:30 CEST